Scout — WCZ2046 — position and weather

sailwx.info

Track history (hours):
 
Tides and Currents Weather Stations Pressure Air Temp Water Temp Dewpoint Dewpoint Depression Visibility Wind Speed Wind Dir Waves Ship Positions

Scout

Owner: Crowley Marine Services, SEATTLE, WA. More information available from US FCC via Universal Licensing System and Coast Guard Vessel Documentation Center.

Last reported at 2015-Jul-03 23:14 UTC. Time now 2015-Jul-03 23:41 UTC.
Position N 32°39' W 117°07'.

; draft 5.6 m.

Type: Tug. MMSI: 366764730.

Date/timePositionNaut miles runAvg speedWind from/ knotsBaromVisibWave heightAir tempDewpointWater temp
2015-Jul-03 23:14N 32°39' W 117°07'2 2.6
2015-Jul-03 22:23N 32°41' W 117°09'1 0.9
2015-Jul-03 21:32N 32°42' W 117°09'0 0.0
2015-Jul-03 20:31N 32°42' W 117°09'0 0.0
2015-Jul-03 19:33N 32°42' W 117°09'0 0.0
2015-Jul-03 18:33N 32°42' W 117°09'0 0.0
2015-Jul-03 17:33N 32°42' W 117°09'0 0.0
2015-Jul-03 16:33N 32°42' W 117°09'0 0.0
2015-Jul-03 15:33N 32°42' W 117°09'0 0.0
2015-Jul-03 14:32N 32°42' W 117°09'3 3.5
2015-Jul-03 13:33N 32°39' W 117°07'3 3.0
2015-Jul-03 12:26N 32°42' W 117°09'0 0.0
2015-Jul-03 11:32N 32°42' W 117°09'0 0.0
2015-Jul-03 10:33N 32°42' W 117°09'0 0.1
2015-Jul-03 09:33N 32°42' W 117°09'0 0.1
2015-Jul-03 08:33N 32°42' W 117°09'0 0.0
2015-Jul-03 07:33N 32°42' W 117°09'0 0.0
2015-Jul-03 06:33N 32°42' W 117°09'0 0.0
2015-Jul-03 05:33N 32°42' W 117°09'0 0.0
2015-Jul-03 04:33N 32°42' W 117°09'0 0.0
2015-Jul-03 03:33N 32°42' W 117°09'0 0.0
2015-Jul-03 02:33N 32°42' W 117°09'0 0.0
2015-Jul-03 01:31N 32°42' W 117°09'2 2.4
2015-Jul-03 00:33N 32°40' W 117°08'1 0.7
2015-Jul-02 23:33N 32°40' W 117°08'2 1.6
2015-Jul-02 22:33N 32°42' W 117°09'0 0.0
2015-Jul-02 20:29N 32°42' W 117°09'0 0.0
2015-Jul-02 19:33N 32°42' W 117°09'0 0.0
2015-Jul-02 18:33N 32°42' W 117°09'0 0.0
2015-Jul-02 17:33N 32°42' W 117°09'0 0.0
2015-Jul-02 16:33N 32°42' W 117°09'0 0.0
2015-Jul-02 15:28N 32°42' W 117°09'0 0.0
2015-Jul-02 14:33N 32°42' W 117°09'0 0.0
2015-Jul-02 13:33N 32°42' W 117°09'3 3.1
2015-Jul-02 12:28N 32°39' W 117°07'3 3.6
2015-Jul-02 11:33N 32°42' W 117°09'0 0.0
2015-Jul-02 10:33N 32°42' W 117°09'0 0.0
2015-Jul-02 09:33N 32°42' W 117°09'1 0.9
2015-Jul-02 08:33N 32°42' W 117°10'1 0.9
2015-Jul-02 07:32N 32°42' W 117°09'0 0.0
2015-Jul-02 06:22N 32°42' W 117°09'0 0.0
2015-Jul-02 03:24N 32°42' W 117°09'0 0.0
2015-Jul-02 02:27N 32°42' W 117°09'0 0.0
2015-Jul-02 01:32N 32°42' W 117°09'0 0.0
2015-Jul-02 00:31N 32°42' W 117°09'2 1.7
2015-Jul-01 23:33N 32°41' W 117°08'0 0.1
2015-Jul-01 22:33N 32°40' W 117°08'2 1.7
2015-Jul-01 21:33N 32°42' W 117°09'0 0.0
2015-Jul-01 20:33N 32°42' W 117°09'0 0.0
2015-Jul-01 19:33N 32°42' W 117°09'0 0.0
2015-Jul-01 18:33N 32°42' W 117°09'0 0.0
2015-Jul-01 17:33N 32°42' W 117°09'0 0.0
2015-Jul-01 16:33N 32°42' W 117°09'0 0.0
2015-Jul-01 15:33N 32°42' W 117°09'0 0.0
2015-Jul-01 14:32N 32°42' W 117°09'3 3.5
2015-Jul-01 13:33N 32°39' W 117°07'3 0.6
2015-Jul-01 07:29N 32°42' W 117°09'0 0.0
2015-Jul-01 06:32N 32°42' W 117°09'0 0.0
2015-Jul-01 05:33N 32°42' W 117°09'0 0.0
2015-Jul-01 04:33N 32°42' W 117°09'0 0.0
2015-Jul-01 03:33N 32°42' W 117°09'0 0.0
2015-Jul-01 02:33N 32°42' W 117°09'0 0.0
2015-Jul-01 01:20N 32°42' W 117°09'2 2.0
2015-Jul-01 00:31N 32°41' W 117°08'1 0.8
2015-Jun-30 23:33N 32°40' W 117°08'2 1.9
2015-Jun-30 22:18N 32°42' W 117°09'0 0.0
2015-Jun-30 21:29N 32°42' W 117°09'0 0.0
2015-Jun-30 20:33N 32°42' W 117°09'0 0.5
2015-Jun-30 19:33N 32°41' W 117°09'1 1.3
2015-Jun-30 18:33N 32°40' W 117°08'0 0.3
2015-Jun-30 17:33N 32°41' W 117°08'1 1.5
2015-Jun-30 16:33N 32°42' W 117°09'0 0.0
2015-Jun-30 15:33N 32°42' W 117°09'0 0.0
2015-Jun-30 14:33N 32°42' W 117°09'3 2.9
2015-Jun-30 13:33N 32°39' W 117°07'0 0.4
2015-Jun-30 12:25N 32°39' W 117°07'3 3.8
2015-Jun-30 11:32N 32°42' W 117°09'0 0.0
2015-Jun-30 10:04N 32°42' W 117°09'0 0.0
2015-Jun-30 09:33N 32°42' W 117°09'0 0.0
2015-Jun-30 08:33N 32°42' W 117°09'0 0.0
2015-Jun-30 07:33N 32°42' W 117°09'0 0.0
2015-Jun-30 06:33N 32°42' W 117°09'0 0.0
2015-Jun-30 05:33N 32°42' W 117°09'0 0.0
2015-Jun-30 04:33N 32°42' W 117°09'0 0.0
2015-Jun-30 03:33N 32°42' W 117°09'0 0.0
2015-Jun-30 02:33N 32°42' W 117°09'0 0.0
2015-Jun-30 01:33N 32°42' W 117°09'0 0.0
2015-Jun-30 00:33N 32°42' W 117°09'0 0.0
2015-Jun-29 23:33N 32°42' W 117°09'0 0.0
2015-Jun-29 22:33N 32°42' W 117°09'0 0.0
2015-Jun-29 21:33N 32°42' W 117°09'0 0.0
2015-Jun-29 20:12N 32°42' W 117°09'0 0.0
2015-Jun-29 19:31N 32°42' W 117°09'0 0.0
2015-Jun-29 18:33N 32°42' W 117°09'0 0.0
2015-Jun-29 17:33N 32°42' W 117°09'0 0.0
2015-Jun-29 16:33N 32°42' W 117°09'0 0.0
2015-Jun-29 15:33N 32°42' W 117°09'0 0.0
2015-Jun-29 14:33N 32°42' W 117°09'0 0.1
2015-Jun-29 13:33N 32°42' W 117°09'0 0.1
2015-Jun-29 12:33N 32°42' W 117°09'0 0.0
2015-Jun-29 11:33N 32°42' W 117°09'0 0.0
2015-Jun-29 10:15N 32°42' W 117°09'0 0.0
2015-Jun-29 09:33N 32°42' W 117°09'0 0.0
2015-Jun-29 08:33N 32°42' W 117°09'0 0.0
2015-Jun-29 07:33N 32°42' W 117°09'0 0.0
2015-Jun-29 06:33N 32°42' W 117°09'0 0.0
2015-Jun-29 05:33N 32°42' W 117°09'0 0.0
2015-Jun-29 04:33N 32°42' W 117°09'0 0.0
2015-Jun-29 03:33N 32°42' W 117°09'0 0.0
2015-Jun-29 02:33N 32°42' W 117°09'0 0.0
2015-Jun-29 01:29N 32°42' W 117°09'0 0.0
2015-Jun-29 00:33N 32°42' W 117°09'0 0.0
2015-Jun-28 23:32N 32°42' W 117°09'0 0.0
2015-Jun-28 22:32N 32°42' W 117°09'0 0.0
2015-Jun-28 21:33N 32°42' W 117°09'0 0.0
2015-Jun-28 20:33N 32°42' W 117°09'0 0.0
2015-Jun-28 19:32N 32°42' W 117°09'0 0.0
2015-Jun-28 18:33N 32°42' W 117°09'0 0.0
2015-Jun-28 17:33N 32°42' W 117°09'0 0.0
2015-Jun-28 16:33N 32°42' W 117°09'0 0.0
2015-Jun-28 15:33N 32°42' W 117°09'0 0.0
2015-Jun-28 14:33N 32°42' W 117°09'0 0.0
2015-Jun-28 13:33N 32°42' W 117°09'2 1.5
2015-Jun-28 12:33N 32°43' W 117°11'1 1.2
2015-Jun-28 11:33N 32°42' W 117°09'0 0.3
2015-Jun-28 10:33N 32°42' W 117°09'1 1.3
2015-Jun-28 09:33N 32°41' W 117°08'1 1.3
2015-Jun-28 08:33N 32°42' W 117°09'0 0.0
2015-Jun-28 07:33N 32°42' W 117°09'0 0.0
2015-Jun-28 06:33N 32°42' W 117°09'0 0.0
2015-Jun-28 05:33N 32°42' W 117°09'0 0.0
2015-Jun-28 04:33N 32°42' W 117°09'0 0.0
2015-Jun-28 03:33N 32°42' W 117°09'0 0.0
2015-Jun-28 02:26N 32°42' W 117°09'0 0.0
2015-Jun-28 01:33N 32°42' W 117°09'0 0.0
2015-Jun-28 00:31N 32°42' W 117°09'3 3.1
2015-Jun-27 23:33N 32°39' W 117°07'3 3.0
2015-Jun-27 22:32N 32°42' W 117°09'0 0.0
2015-Jun-27 21:13N 32°42' W 117°09'0 0.0
2015-Jun-27 20:26N 32°42' W 117°09'0 0.0
2015-Jun-27 19:33N 32°42' W 117°09'0 0.0
2015-Jun-27 18:33N 32°42' W 117°09'0 0.0
2015-Jun-27 17:31N 32°42' W 117°09'0 0.0
2015-Jun-27 16:32N 32°42' W 117°09'0 0.0
2015-Jun-27 15:33N 32°42' W 117°09'0 0.0
2015-Jun-27 14:33N 32°42' W 117°09'0 0.0
2015-Jun-27 13:33N 32°42' W 117°09'0 0.0
2015-Jun-27 12:33N 32°42' W 117°09'0 0.0
2015-Jun-27 11:33N 32°42' W 117°09'0 0.0
2015-Jun-27 10:33N 32°42' W 117°09'0 0.0
2015-Jun-27 09:33N 32°42' W 117°09'0 0.0
2015-Jun-27 08:33N 32°42' W 117°09'0 0.0
2015-Jun-27 07:33N 32°42' W 117°09'0 0.0
2015-Jun-27 06:33N 32°42' W 117°09'0 0.0
2015-Jun-27 05:33N 32°42' W 117°09'0 0.0
2015-Jun-27 04:33N 32°42' W 117°09'0 0.0
2015-Jun-27 03:33N 32°42' W 117°09'0 0.0
2015-Jun-27 02:33N 32°42' W 117°09'0 0.0
2015-Jun-27 01:33N 32°42' W 117°09'0 0.0
2015-Jun-27 00:33N 32°42' W 117°09'0 0.0
2015-Jun-26 23:32N 32°42' W 117°09'0 0.0
2015-Jun-26 22:33N 32°42' W 117°09'0 0.0
2015-Jun-26 21:33N 32°42' W 117°09'0 0.0
2015-Jun-26 20:33N 32°42' W 117°09'0 0.0
2015-Jun-26 19:33N 32°42' W 117°09'0 0.0
2015-Jun-26 18:33N 32°42' W 117°09'0 0.0
2015-Jun-26 17:33N 32°42' W 117°09'0 0.0
2015-Jun-26 16:33N 32°42' W 117°09'0 0.0
2015-Jun-26 15:33N 32°42' W 117°09'0 0.0
2015-Jun-26 14:33N 32°42' W 117°09'0 0.0
2015-Jun-26 13:33N 32°42' W 117°09'0 0.0
2015-Jun-26 12:33N 32°42' W 117°09'0 0.0
2015-Jun-26 11:33N 32°42' W 117°09'0 0.0
2015-Jun-26 10:33N 32°42' W 117°09'0 0.0
2015-Jun-26 09:33N 32°42' W 117°09'0 0.0
2015-Jun-26 08:33N 32°42' W 117°09'0 0.0
2015-Jun-26 07:33N 32°42' W 117°09'0 0.0
2015-Jun-26 06:33N 32°42' W 117°09'0 0.0
2015-Jun-26 05:33N 32°42' W 117°09'0 0.2
2015-Jun-26 04:34N 32°42' W 117°09'1 0.6
2015-Jun-26 03:33N 32°42' W 117°10'1 0.8
2015-Jun-26 02:33N 32°42' W 117°09'0 0.0
2015-Jun-26 01:33N 32°42' W 117°09'0 0.0
2015-Jun-26 00:33N 32°42' W 117°09'0 0.0
2015-Jun-25 23:33N 32°42' W 117°09'0 0.0
2015-Jun-25 22:33N 32°42' W 117°09'0 0.0
2015-Jun-25 21:33N 32°42' W 117°09'0 0.0
2015-Jun-25 20:33N 32°42' W 117°09'0 0.0
2015-Jun-25 19:33N 32°42' W 117°09'0 0.0
2015-Jun-25 18:33N 32°42' W 117°09'0 0.0
2015-Jun-25 17:33N 32°42' W 117°09'0 0.0
2015-Jun-25 16:33N 32°42' W 117°09'0 0.0
2015-Jun-25 15:33N 32°42' W 117°09'0 0.0
2015-Jun-25 14:33N 32°42' W 117°09'0 0.0
2015-Jun-25 13:33N 32°42' W 117°09'0 0.0
2015-Jun-25 12:33N 32°42' W 117°09'0 0.0
2015-Jun-25 11:33N 32°42' W 117°09'0 0.0
2015-Jun-25 10:32N 32°42' W 117°09'0 0.0
2015-Jun-25 09:33N 32°42' W 117°09'0 0.0
2015-Jun-25 08:33N 32°42' W 117°09'0 0.1
2015-Jun-25 07:34N 32°42' W 117°09'3 2.6
2015-Jun-25 06:33N 32°39' W 117°07'3 2.7
2015-Jun-25 05:33N 32°42' W 117°09'0 0.0
2015-Jun-25 04:33N 32°42' W 117°09'0 0.0
2015-Jun-25 03:33N 32°42' W 117°09'0 0.0
2015-Jun-25 02:33N 32°42' W 117°09'0 0.0
2015-Jun-25 01:33N 32°42' W 117°09'0 0.0
2015-Jun-25 00:33N 32°42' W 117°09'0 0.0
2015-Jun-24 23:33N 32°42' W 117°09'3 2.8
2015-Jun-24 22:33N 32°39' W 117°07'0 0.0
2015-Jun-24 21:33N 32°39' W 117°07'0 0.3
2015-Jun-24 20:34N 32°40' W 117°08'3 2.5
2015-Jun-24 19:33N 32°42' W 117°09'0 0.0
2015-Jun-24 18:24N 32°42' W 117°09'0 0.0
2015-Jun-24 17:33N 32°42' W 117°09'0 0.0
2015-Jun-24 16:33N 32°42' W 117°09'0 0.0
2015-Jun-24 15:33N 32°42' W 117°09'0 0.0
2015-Jun-24 14:31N 32°42' W 117°09'0 0.0
2015-Jun-24 13:32N 32°42' W 117°09'0 0.0
2015-Jun-24 12:33N 32°42' W 117°09'0 0.0
2015-Jun-24 11:33N 32°42' W 117°09'0 0.0
2015-Jun-24 10:24N 32°42' W 117°09'0 0.0
2015-Jun-24 09:32N 32°42' W 117°09'0 0.0
2015-Jun-24 08:29N 32°42' W 117°09'0 0.0
2015-Jun-24 07:33N 32°42' W 117°09'0 0.0
2015-Jun-24 06:33N 32°42' W 117°09'0 0.0
2015-Jun-24 05:33N 32°42' W 117°09'0 0.0
2015-Jun-24 04:34N 32°42' W 117°09'0 0.0
2015-Jun-24 03:34N 32°42' W 117°09'0 0.0
2015-Jun-24 02:33N 32°42' W 117°09'0 0.0
2015-Jun-24 01:33N 32°42' W 117°09'0 0.0
2015-Jun-24 00:33N 32°42' W 117°09'3 3.4
2015-Jun-23 23:33N 32°39' W 117°07'  
Track history (hours):
 
Tides and Currents Weather Stations Pressure Air Temp Water Temp Dewpoint Dewpoint Depression Visibility Wind Speed Wind Dir Waves Ship Positions

Scout

Owner: Crowley Marine Services, SEATTLE, WA. More information available from US FCC via Universal Licensing System and Coast Guard Vessel Documentation Center.

Last reported at 2015-Jul-03 23:14 UTC. Time now 2015-Jul-03 23:41 UTC.
Position N 32°39' W 117°07'.

; draft 5.6 m.

Type: Tug. MMSI: 366764730.

Date/timePositionNaut miles runAvg speedWind from/ knotsBaromVisibWave heightAir tempDewpointWater temp
2015-Jul-03 23:14N 32°39' W 117°07'2 2.6
2015-Jul-03 22:23N 32°41' W 117°09'1 0.9
2015-Jul-03 21:32N 32°42' W 117°09'0 0.0
2015-Jul-03 20:31N 32°42' W 117°09'0 0.0
2015-Jul-03 19:33N 32°42' W 117°09'0 0.0
2015-Jul-03 18:33N 32°42' W 117°09'0 0.0
2015-Jul-03 17:33N 32°42' W 117°09'0 0.0
2015-Jul-03 16:33N 32°42' W 117°09'0 0.0
2015-Jul-03 15:33N 32°42' W 117°09'0 0.0
2015-Jul-03 14:32N 32°42' W 117°09'3 3.5
2015-Jul-03 13:33N 32°39' W 117°07'3 3.0
2015-Jul-03 12:26N 32°42' W 117°09'0 0.0
2015-Jul-03 11:32N 32°42' W 117°09'0 0.0
2015-Jul-03 10:33N 32°42' W 117°09'0 0.1
2015-Jul-03 09:33N 32°42' W 117°09'0 0.1
2015-Jul-03 08:33N 32°42' W 117°09'0 0.0
2015-Jul-03 07:33N 32°42' W 117°09'0 0.0
2015-Jul-03 06:33N 32°42' W 117°09'0 0.0
2015-Jul-03 05:33N 32°42' W 117°09'0 0.0
2015-Jul-03 04:33N 32°42' W 117°09'0 0.0
2015-Jul-03 03:33N 32°42' W 117°09'0 0.0
2015-Jul-03 02:33N 32°42' W 117°09'0 0.0
2015-Jul-03 01:31N 32°42' W 117°09'2 2.4
2015-Jul-03 00:33N 32°40' W 117°08'1 0.7
2015-Jul-02 23:33N 32°40' W 117°08'2 1.6
2015-Jul-02 22:33N 32°42' W 117°09'0 0.0
2015-Jul-02 20:29N 32°42' W 117°09'0 0.0
2015-Jul-02 19:33N 32°42' W 117°09'0 0.0
2015-Jul-02 18:33N 32°42' W 117°09'0 0.0
2015-Jul-02 17:33N 32°42' W 117°09'0 0.0
2015-Jul-02 16:33N 32°42' W 117°09'0 0.0
2015-Jul-02 15:28N 32°42' W 117°09'0 0.0
2015-Jul-02 14:33N 32°42' W 117°09'0 0.0
2015-Jul-02 13:33N 32°42' W 117°09'3 3.1
2015-Jul-02 12:28N 32°39' W 117°07'3 3.6
2015-Jul-02 11:33N 32°42' W 117°09'0 0.0
2015-Jul-02 10:33N 32°42' W 117°09'0 0.0
2015-Jul-02 09:33N 32°42' W 117°09'1 0.9
2015-Jul-02 08:33N 32°42' W 117°10'1 0.9
2015-Jul-02 07:32N 32°42' W 117°09'0 0.0
2015-Jul-02 06:22N 32°42' W 117°09'0 0.0
2015-Jul-02 03:24N 32°42' W 117°09'0 0.0
2015-Jul-02 02:27N 32°42' W 117°09'0 0.0
2015-Jul-02 01:32N 32°42' W 117°09'0 0.0
2015-Jul-02 00:31N 32°42' W 117°09'2 1.7
2015-Jul-01 23:33N 32°41' W 117°08'0 0.1
2015-Jul-01 22:33N 32°40' W 117°08'2 1.7
2015-Jul-01 21:33N 32°42' W 117°09'0 0.0
2015-Jul-01 20:33N 32°42' W 117°09'0 0.0
2015-Jul-01 19:33N 32°42' W 117°09'0 0.0
2015-Jul-01 18:33N 32°42' W 117°09'0 0.0
2015-Jul-01 17:33N 32°42' W 117°09'0 0.0
2015-Jul-01 16:33N 32°42' W 117°09'0 0.0
2015-Jul-01 15:33N 32°42' W 117°09'0 0.0
2015-Jul-01 14:32N 32°42' W 117°09'3 3.5
2015-Jul-01 13:33N 32°39' W 117°07'3 0.6
2015-Jul-01 07:29N 32°42' W 117°09'0 0.0
2015-Jul-01 06:32N 32°42' W 117°09'0 0.0
2015-Jul-01 05:33N 32°42' W 117°09'0 0.0
2015-Jul-01 04:33N 32°42' W 117°09'0 0.0
2015-Jul-01 03:33N 32°42' W 117°09'0 0.0
2015-Jul-01 02:33N 32°42' W 117°09'0 0.0
2015-Jul-01 01:20N 32°42' W 117°09'2 2.0
2015-Jul-01 00:31N 32°41' W 117°08'1 0.8
2015-Jun-30 23:33N 32°40' W 117°08'2 1.9
2015-Jun-30 22:18N 32°42' W 117°09'0 0.0
2015-Jun-30 21:29N 32°42' W 117°09'0 0.0
2015-Jun-30 20:33N 32°42' W 117°09'0 0.5
2015-Jun-30 19:33N 32°41' W 117°09'1 1.3
2015-Jun-30 18:33N 32°40' W 117°08'0 0.3
2015-Jun-30 17:33N 32°41' W 117°08'1 1.5
2015-Jun-30 16:33N 32°42' W 117°09'0 0.0
2015-Jun-30 15:33N 32°42' W 117°09'0 0.0
2015-Jun-30 14:33N 32°42' W 117°09'3 2.9
2015-Jun-30 13:33N 32°39' W 117°07'0 0.4
2015-Jun-30 12:25N 32°39' W 117°07'3 3.8
2015-Jun-30 11:32N 32°42' W 117°09'0 0.0
2015-Jun-30 10:04N 32°42' W 117°09'0 0.0
2015-Jun-30 09:33N 32°42' W 117°09'0 0.0
2015-Jun-30 08:33N 32°42' W 117°09'0 0.0
2015-Jun-30 07:33N 32°42' W 117°09'0 0.0
2015-Jun-30 06:33N 32°42' W 117°09'0 0.0
2015-Jun-30 05:33N 32°42' W 117°09'0 0.0
2015-Jun-30 04:33N 32°42' W 117°09'0 0.0
2015-Jun-30 03:33N 32°42' W 117°09'0 0.0
2015-Jun-30 02:33N 32°42' W 117°09'0 0.0
2015-Jun-30 01:33N 32°42' W 117°09'0 0.0
2015-Jun-30 00:33N 32°42' W 117°09'0 0.0
2015-Jun-29 23:33N 32°42' W 117°09'0 0.0
2015-Jun-29 22:33N 32°42' W 117°09'0 0.0
2015-Jun-29 21:33N 32°42' W 117°09'0 0.0
2015-Jun-29 20:12N 32°42' W 117°09'0 0.0
2015-Jun-29 19:31N 32°42' W 117°09'0 0.0
2015-Jun-29 18:33N 32°42' W 117°09'0 0.0
2015-Jun-29 17:33N 32°42' W 117°09'0 0.0
2015-Jun-29 16:33N 32°42' W 117°09'0 0.0
2015-Jun-29 15:33N 32°42' W 117°09'0 0.0
2015-Jun-29 14:33N 32°42' W 117°09'0 0.1
2015-Jun-29 13:33N 32°42' W 117°09'0 0.1
2015-Jun-29 12:33N 32°42' W 117°09'0 0.0
2015-Jun-29 11:33N 32°42' W 117°09'0 0.0
2015-Jun-29 10:15N 32°42' W 117°09'0 0.0
2015-Jun-29 09:33N 32°42' W 117°09'0 0.0
2015-Jun-29 08:33N 32°42' W 117°09'0 0.0
2015-Jun-29 07:33N 32°42' W 117°09'0 0.0
2015-Jun-29 06:33N 32°42' W 117°09'0 0.0
2015-Jun-29 05:33N 32°42' W 117°09'0 0.0
2015-Jun-29 04:33N 32°42' W 117°09'0 0.0
2015-Jun-29 03:33N 32°42' W 117°09'0 0.0
2015-Jun-29 02:33N 32°42' W 117°09'0 0.0
2015-Jun-29 01:29N 32°42' W 117°09'0 0.0
2015-Jun-29 00:33N 32°42' W 117°09'0 0.0
2015-Jun-28 23:32N 32°42' W 117°09'0 0.0
2015-Jun-28 22:32N 32°42' W 117°09'0 0.0
2015-Jun-28 21:33N 32°42' W 117°09'0 0.0
2015-Jun-28 20:33N 32°42' W 117°09'0 0.0
2015-Jun-28 19:32N 32°42' W 117°09'0 0.0
2015-Jun-28 18:33N 32°42' W 117°09'0 0.0
2015-Jun-28 17:33N 32°42' W 117°09'0 0.0
2015-Jun-28 16:33N 32°42' W 117°09'0 0.0
2015-Jun-28 15:33N 32°42' W 117°09'0 0.0
2015-Jun-28 14:33N 32°42' W 117°09'0 0.0
2015-Jun-28 13:33N 32°42' W 117°09'2 1.5
2015-Jun-28 12:33N 32°43' W 117°11'1 1.2
2015-Jun-28 11:33N 32°42' W 117°09'0 0.3
2015-Jun-28 10:33N 32°42' W 117°09'1 1.3
2015-Jun-28 09:33N 32°41' W 117°08'1 1.3
2015-Jun-28 08:33N 32°42' W 117°09'0 0.0
2015-Jun-28 07:33N 32°42' W 117°09'0 0.0
2015-Jun-28 06:33N 32°42' W 117°09'0 0.0
2015-Jun-28 05:33N 32°42' W 117°09'0 0.0
2015-Jun-28 04:33N 32°42' W 117°09'0 0.0
2015-Jun-28 03:33N 32°42' W 117°09'0 0.0
2015-Jun-28 02:26N 32°42' W 117°09'0 0.0
2015-Jun-28 01:33N 32°42' W 117°09'0 0.0
2015-Jun-28 00:31N 32°42' W 117°09'3 3.1
2015-Jun-27 23:33N 32°39' W 117°07'3 3.0
2015-Jun-27 22:32N 32°42' W 117°09'0 0.0
2015-Jun-27 21:13N 32°42' W 117°09'0 0.0
2015-Jun-27 20:26N 32°42' W 117°09'0 0.0
2015-Jun-27 19:33N 32°42' W 117°09'0 0.0
2015-Jun-27 18:33N 32°42' W 117°09'0 0.0
2015-Jun-27 17:31N 32°42' W 117°09'0 0.0
2015-Jun-27 16:32N 32°42' W 117°09'0 0.0
2015-Jun-27 15:33N 32°42' W 117°09'0 0.0
2015-Jun-27 14:33N 32°42' W 117°09'0 0.0
2015-Jun-27 13:33N 32°42' W 117°09'0 0.0
2015-Jun-27 12:33N 32°42' W 117°09'0 0.0
2015-Jun-27 11:33N 32°42' W 117°09'0 0.0
2015-Jun-27 10:33N 32°42' W 117°09'0 0.0
2015-Jun-27 09:33N 32°42' W 117°09'0 0.0
2015-Jun-27 08:33N 32°42' W 117°09'0 0.0
2015-Jun-27 07:33N 32°42' W 117°09'0 0.0
2015-Jun-27 06:33N 32°42' W 117°09'0 0.0
2015-Jun-27 05:33N 32°42' W 117°09'0 0.0
2015-Jun-27 04:33N 32°42' W 117°09'0 0.0
2015-Jun-27 03:33N 32°42' W 117°09'0 0.0
2015-Jun-27 02:33N 32°42' W 117°09'0 0.0
2015-Jun-27 01:33N 32°42' W 117°09'0 0.0
2015-Jun-27 00:33N 32°42' W 117°09'0 0.0
2015-Jun-26 23:32N 32°42' W 117°09'0 0.0
2015-Jun-26 22:33N 32°42' W 117°09'0 0.0
2015-Jun-26 21:33N 32°42' W 117°09'0 0.0
2015-Jun-26 20:33N 32°42' W 117°09'0 0.0
2015-Jun-26 19:33N 32°42' W 117°09'0 0.0
2015-Jun-26 18:33N 32°42' W 117°09'0 0.0
2015-Jun-26 17:33N 32°42' W 117°09'0 0.0
2015-Jun-26 16:33N 32°42' W 117°09'0 0.0
2015-Jun-26 15:33N 32°42' W 117°09'0 0.0
2015-Jun-26 14:33N 32°42' W 117°09'0 0.0
2015-Jun-26 13:33N 32°42' W 117°09'0 0.0
2015-Jun-26 12:33N 32°42' W 117°09'0 0.0
2015-Jun-26 11:33N 32°42' W 117°09'0 0.0
2015-Jun-26 10:33N 32°42' W 117°09'0 0.0
2015-Jun-26 09:33N 32°42' W 117°09'0 0.0
2015-Jun-26 08:33N 32°42' W 117°09'0 0.0
2015-Jun-26 07:33N 32°42' W 117°09'0 0.0
2015-Jun-26 06:33N 32°42' W 117°09'0 0.0
2015-Jun-26 05:33N 32°42' W 117°09'0 0.2
2015-Jun-26 04:34N 32°42' W 117°09'1 0.6
2015-Jun-26 03:33N 32°42' W 117°10'1 0.8
2015-Jun-26 02:33N 32°42' W 117°09'0 0.0
2015-Jun-26 01:33N 32°42' W 117°09'0 0.0
2015-Jun-26 00:33N 32°42' W 117°09'0 0.0
2015-Jun-25 23:33N 32°42' W 117°09'0 0.0
2015-Jun-25 22:33N 32°42' W 117°09'0 0.0
2015-Jun-25 21:33N 32°42' W 117°09'0 0.0
2015-Jun-25 20:33N 32°42' W 117°09'0 0.0
2015-Jun-25 19:33N 32°42' W 117°09'0 0.0
2015-Jun-25 18:33N 32°42' W 117°09'0 0.0
2015-Jun-25 17:33N 32°42' W 117°09'0 0.0
2015-Jun-25 16:33N 32°42' W 117°09'0 0.0
2015-Jun-25 15:33N 32°42' W 117°09'0 0.0
2015-Jun-25 14:33N 32°42' W 117°09'0 0.0
2015-Jun-25 13:33N 32°42' W 117°09'0 0.0
2015-Jun-25 12:33N 32°42' W 117°09'0 0.0
2015-Jun-25 11:33N 32°42' W 117°09'0 0.0
2015-Jun-25 10:32N 32°42' W 117°09'0 0.0
2015-Jun-25 09:33N 32°42' W 117°09'0 0.0
2015-Jun-25 08:33N 32°42' W 117°09'0 0.1
2015-Jun-25 07:34N 32°42' W 117°09'3 2.6
2015-Jun-25 06:33N 32°39' W 117°07'3 2.7
2015-Jun-25 05:33N 32°42' W 117°09'0 0.0
2015-Jun-25 04:33N 32°42' W 117°09'0 0.0
2015-Jun-25 03:33N 32°42' W 117°09'0 0.0
2015-Jun-25 02:33N 32°42' W 117°09'0 0.0
2015-Jun-25 01:33N 32°42' W 117°09'0 0.0
2015-Jun-25 00:33N 32°42' W 117°09'0 0.0
2015-Jun-24 23:33N 32°42' W 117°09'3 2.8
2015-Jun-24 22:33N 32°39' W 117°07'0 0.0
2015-Jun-24 21:33N 32°39' W 117°07'0 0.3
2015-Jun-24 20:34N 32°40' W 117°08'3 2.5
2015-Jun-24 19:33N 32°42' W 117°09'0 0.0
2015-Jun-24 18:24N 32°42' W 117°09'0 0.0
2015-Jun-24 17:33N 32°42' W 117°09'0 0.0
2015-Jun-24 16:33N 32°42' W 117°09'0 0.0
2015-Jun-24 15:33N 32°42' W 117°09'0 0.0
2015-Jun-24 14:31N 32°42' W 117°09'0 0.0
2015-Jun-24 13:32N 32°42' W 117°09'0 0.0
2015-Jun-24 12:33N 32°42' W 117°09'0 0.0
2015-Jun-24 11:33N 32°42' W 117°09'0 0.0
2015-Jun-24 10:24N 32°42' W 117°09'0 0.0
2015-Jun-24 09:32N 32°42' W 117°09'0 0.0
2015-Jun-24 08:29N 32°42' W 117°09'0 0.0
2015-Jun-24 07:33N 32°42' W 117°09'0 0.0
2015-Jun-24 06:33N 32°42' W 117°09'0 0.0
2015-Jun-24 05:33N 32°42' W 117°09'0 0.0
2015-Jun-24 04:34N 32°42' W 117°09'0 0.0
2015-Jun-24 03:34N 32°42' W 117°09'0 0.0
2015-Jun-24 02:33N 32°42' W 117°09'0 0.0
2015-Jun-24 01:33N 32°42' W 117°09'0 0.0
2015-Jun-24 00:33N 32°42' W 117°09'3 3.4
2015-Jun-23 23:33N 32°39' W 117°07'  

Dump ship's entire track history